Terminal Aerodrome Forecast
Issued by NWS

Home | Current Version | Previous Version | Text Only | Print | Product List | Glossary On
Versions: 1 2 3 4 5 6 7 8 9 10 11 12 13
000
FTUS44 KSJT 020500
TAFSOA
TAF
KSOA 020520Z 0206/0306 18009KT P6SM SKC
     FM020800 19005KT P6SM OVC015
     FM021400 21010G17KT P6SM SKC=

USA.gov is the U.S. government's official web portal to all federal, state and local government web resources and services.